עמוד ראשי
תמונות לווין תחזית 15-יוםאקליםתחזית ים סופות טרופיות ברק שדות תעופהשאלות נפוצות עלון אודות
מזג אוויר : אירופה אפריקה אמריקה הצפונית אמריקה הדרומית אסיה אוסטרליה-אוקיאניה אחר
שפות איש קשר

סלוניקי, יוון

קו רוחב: 40-31N, קו אורך: 022-58E, גובה: 8 m


METAR: LGTS 221320Z 19012KT 9999 FEW030 33/16 Q1012 NOSIG
short-TAF: מיושן (38096 שעות)
long-TAF: LGTS 221100Z 2212/2312 VRB03KT CAVOK BECMG 2212/2214 19015KT BECMG 2218/2220 VRB03KT

זמן: 16:44 (13:44 UTC)

תצפית מזג אוויר נוכחית

הדו"ח נערך לפני 24 דקות, בשעה 13:20 UTC  
רוח 12 קשר מכיוון דרום
טמפרטורת 33°C
לחות 36%
לחץ 1012 hPa
ראות 10 km או יותר
מעט עננים בגובה 3000 ft

שינוי יחידות

תחזית

הדו"ח נערך לפני 2 שעות ו 32 דקות, בשעה 11:12 UTC  
תחזית בתוקף מ 22 ב 12 UTC עד 23 ב 12 UTC
רוח 03 קשר רוח עם כיוונים משתנים
ראות 10 km או יותר
ללא עננים שבסיסם נמוך מ 1500 רגל או קומולונימבוס
יעשה מ
22 ב 12 UTC עד 22 ב 14 UTC
רוח 15 קשר מכיוון דרום
יעשה מ
22 ב 18 UTC עד 22 ב 20 UTC
רוח 03 קשר רוח עם כיוונים משתנים
המידע באתר זה מותנה של תניית פטור
מזג אוויר : אירופה אפריקה אמריקה הצפונית אמריקה הדרומית אסיה אוסטרליה-אוקיאניה אחר
תמונות לווין תחזית 15-יוםאקליםתחזית ים סופות טרופיות ברק שדות תעופהשאלות נפוצות שפות איש קשר עלון אודות